createdAt,value
2023-06-17T00:00:13.580Z,14.57
2023-06-17T00:02:40.173Z,14.48
2023-06-17T00:05:06.990Z,14.44
2023-06-17T00:07:33.475Z,14.38
2023-06-17T00:09:59.979Z,14.29
2023-06-17T00:12:30.665Z,14.27
2023-06-17T00:14:58.278Z,14.20
2023-06-17T00:17:24.845Z,14.10
2023-06-17T00:19:51.272Z,14.04
2023-06-17T00:22:19.802Z,14.02
2023-06-17T00:24:46.263Z,13.93
2023-06-17T00:27:12.743Z,13.86
2023-06-17T00:29:39.302Z,13.83
2023-06-17T00:32:06.228Z,13.74
2023-06-17T00:34:32.686Z,13.70
2023-06-17T00:36:59.656Z,13.66
2023-06-17T00:39:26.971Z,13.58
2023-06-17T00:41:53.414Z,13.50
2023-06-17T00:44:19.996Z,13.45
2023-06-17T00:46:51.475Z,13.38
2023-06-17T00:49:18.925Z,13.36
2023-06-17T00:51:53.426Z,13.36
2023-06-17T00:54:28.736Z,13.43
2023-06-17T00:56:56.028Z,13.46
2023-06-17T00:59:22.552Z,13.42
2023-06-17T01:01:49.311Z,13.36
2023-06-17T01:04:16.410Z,13.29
2023-06-17T01:06:51.750Z,13.19
2023-06-17T01:09:23.407Z,13.15
2023-06-17T01:11:55.276Z,13.13
2023-06-17T01:14:22.279Z,13.11
2023-06-17T01:16:52.231Z,13.06
2023-06-17T01:19:22.046Z,12.98
2023-06-17T01:21:55.171Z,12.93
2023-06-17T01:24:29.735Z,12.88
2023-06-17T01:27:01.106Z,12.84
2023-06-17T01:29:30.444Z,12.75
2023-06-17T01:31:58.973Z,12.68
2023-06-17T01:34:37.615Z,12.63
2023-06-17T01:37:08.800Z,12.58
2023-06-17T01:39:37.335Z,12.54
2023-06-17T01:42:11.028Z,12.49
2023-06-17T01:44:39.756Z,12.47
2023-06-17T01:47:10.465Z,12.38
2023-06-17T01:49:38.776Z,12.37
2023-06-17T01:52:06.097Z,12.37
2023-06-17T01:54:32.729Z,12.29
2023-06-17T01:56:59.463Z,12.26
2023-06-17T01:59:26.031Z,12.25
2023-06-17T02:01:52.507Z,12.26
2023-06-17T02:04:19.294Z,12.26
2023-06-17T02:06:45.804Z,12.21
2023-06-17T02:09:14.284Z,12.17
2023-06-17T02:11:40.791Z,12.14
2023-06-17T02:14:07.741Z,12.15
2023-06-17T02:16:34.717Z,12.14
2023-06-17T02:19:03.382Z,12.13
2023-06-17T02:21:29.893Z,12.14
2023-06-17T02:23:56.446Z,12.11
2023-06-17T02:26:22.958Z,12.07
2023-06-17T02:28:49.758Z,12.05
2023-06-17T02:31:16.394Z,12.01
2023-06-17T02:33:42.902Z,11.96
2023-06-17T02:36:09.380Z,12.01
2023-06-17T02:38:37.110Z,11.97
2023-06-17T02:41:03.643Z,11.90
2023-06-17T02:43:30.410Z,11.86
2023-06-17T02:45:56.903Z,11.81
2023-06-17T02:48:23.367Z,11.76
2023-06-17T02:50:50.030Z,11.73
2023-06-17T02:53:17.337Z,11.76
2023-06-17T02:55:46.679Z,11.80
2023-06-17T02:58:16.763Z,11.78
2023-06-17T03:00:46.539Z,11.71
2023-06-17T03:03:14.136Z,11.65
2023-06-17T03:05:42.567Z,11.64
2023-06-17T03:08:09.562Z,11.68
2023-06-17T03:10:36.067Z,11.63
2023-06-17T03:13:02.786Z,11.55
2023-06-17T03:15:29.222Z,11.45
2023-06-17T03:17:56.249Z,11.33
2023-06-17T03:20:29.382Z,11.28
2023-06-17T03:22:56.864Z,11.28
2023-06-17T03:25:24.336Z,11.29
2023-06-17T03:27:51.857Z,11.26
2023-06-17T03:30:18.575Z,11.20
2023-06-17T03:32:45.995Z,11.13
2023-06-17T03:35:12.793Z,11.13
2023-06-17T03:37:39.284Z,11.13
2023-06-17T03:40:06.993Z,11.21
2023-06-17T03:42:33.546Z,11.25
2023-06-17T03:45:00.059Z,11.27
2023-06-17T03:47:26.834Z,11.26
2023-06-17T03:49:54.085Z,11.28
2023-06-17T03:52:20.720Z,11.30
2023-06-17T03:54:47.397Z,11.28
2023-06-17T03:57:14.082Z,11.23
2023-06-17T03:59:40.628Z,11.18
2023-06-17T04:02:07.272Z,11.16
2023-06-17T04:04:36.078Z,11.17
2023-06-17T04:07:03.800Z,11.22
2023-06-17T04:09:30.361Z,11.25
2023-06-17T04:11:58.417Z,11.28
2023-06-17T04:14:24.849Z,11.30
2023-06-17T04:16:51.339Z,11.35
2023-06-17T04:19:18.646Z,11.43
2023-06-17T04:21:46.620Z,11.45
2023-06-17T04:24:13.172Z,11.49
2023-06-17T04:26:39.734Z,11.55
2023-06-17T04:29:06.565Z,11.57
2023-06-17T04:31:36.600Z,11.62
2023-06-17T04:34:03.744Z,11.70
2023-06-17T04:36:30.563Z,11.75
2023-06-17T04:38:57.078Z,11.79
2023-06-17T04:41:25.158Z,11.87
2023-06-17T04:43:52.519Z,11.96
2023-06-17T04:46:19.442Z,12.06
2023-06-17T04:48:46.585Z,12.14
2023-06-17T04:51:14.032Z,12.23
2023-06-17T04:53:40.718Z,12.34
2023-06-17T04:56:10.000Z,12.43
2023-06-17T04:58:36.517Z,12.54
2023-06-17T05:01:03.230Z,12.63
2023-06-17T05:03:30.874Z,12.73
2023-06-17T05:05:57.630Z,12.84
2023-06-17T05:08:24.192Z,12.94
2023-06-17T05:10:51.058Z,13.23
2023-06-17T05:13:17.530Z,13.74
2023-06-17T05:15:44.149Z,14.36
2023-06-17T05:18:10.961Z,15.39
2023-06-17T05:20:37.651Z,15.22
2023-06-17T05:23:04.430Z,14.88
2023-06-17T05:25:31.070Z,14.67
2023-06-17T05:27:57.573Z,14.57
2023-06-17T05:30:24.202Z,14.59
2023-06-17T05:32:50.936Z,14.88
2023-06-17T05:35:17.747Z,15.86
2023-06-17T05:37:44.486Z,16.04
2023-06-17T05:40:11.422Z,16.12
2023-06-17T05:42:37.966Z,17.97
2023-06-17T05:45:04.870Z,20.25
2023-06-17T05:47:31.516Z,21.74
2023-06-17T05:49:58.135Z,22.83
2023-06-17T05:52:25.414Z,23.38
2023-06-17T05:54:52.280Z,24.00
2023-06-17T05:57:18.827Z,24.62
2023-06-17T05:59:46.205Z,24.94
2023-06-17T06:02:12.919Z,25.28
2023-06-17T06:04:39.394Z,25.68
2023-06-17T06:07:05.990Z,25.90
2023-06-17T06:09:32.632Z,26.04
2023-06-17T06:11:59.378Z,26.25
2023-06-17T06:14:26.090Z,26.44
2023-06-17T06:16:52.613Z,26.76
2023-06-17T06:19:19.290Z,26.92
2023-06-17T06:21:45.872Z,26.83
2023-06-17T06:24:12.552Z,26.92
2023-06-17T06:26:39.332Z,27.00
2023-06-17T06:29:06.288Z,27.02
2023-06-17T06:31:33.252Z,27.05
2023-06-17T06:34:00.023Z,27.31
2023-06-17T06:36:26.557Z,27.40
2023-06-17T06:38:52.990Z,27.01
2023-06-17T06:41:19.694Z,26.77
2023-06-17T06:43:47.030Z,26.84
2023-06-17T06:46:16.086Z,26.96
2023-06-17T06:48:43.193Z,26.99
2023-06-17T06:51:10.044Z,27.08
2023-06-17T06:53:36.572Z,27.27
2023-06-17T06:56:03.097Z,27.47
2023-06-17T06:58:29.605Z,27.71
2023-06-17T07:00:56.371Z,27.70
2023-06-17T07:03:22.828Z,27.79
2023-06-17T07:05:49.401Z,27.75
2023-06-17T07:08:16.040Z,27.94
2023-06-17T07:10:42.658Z,27.80
2023-06-17T07:13:09.370Z,27.23
2023-06-17T07:15:35.963Z,26.60
2023-06-17T07:18:02.594Z,25.81
2023-06-17T07:20:29.173Z,25.06
2023-06-17T07:22:55.800Z,24.67
2023-06-17T07:25:22.431Z,24.49
2023-06-17T07:27:49.030Z,24.36
2023-06-17T07:30:15.782Z,24.27
2023-06-17T07:32:42.652Z,24.12
2023-06-17T07:35:09.417Z,24.11
2023-06-17T07:37:35.886Z,24.07
2023-06-17T07:40:02.463Z,24.09
2023-06-17T07:42:29.139Z,24.17
2023-06-17T07:44:56.023Z,24.28
2023-06-17T07:47:23.151Z,24.35
2023-06-17T07:49:49.979Z,24.31
2023-06-17T07:52:16.586Z,24.36
2023-06-17T07:54:43.121Z,24.48
2023-06-17T07:57:09.759Z,24.45
2023-06-17T07:59:36.430Z,24.51
2023-06-17T08:02:03.199Z,24.62
2023-06-17T08:04:29.673Z,24.56
2023-06-17T08:06:56.806Z,24.50
2023-06-17T08:09:23.388Z,24.56
2023-06-17T08:11:52.969Z,24.74
2023-06-17T08:14:19.513Z,24.83
2023-06-17T08:16:46.857Z,24.88
2023-06-17T08:19:13.637Z,24.98
2023-06-17T08:21:43.346Z,25.10
2023-06-17T08:24:19.761Z,25.33
2023-06-17T08:26:47.040Z,25.45
2023-06-17T08:29:14.563Z,25.71
2023-06-17T08:31:45.817Z,25.84
2023-06-17T08:34:13.818Z,26.08
2023-06-17T08:36:43.760Z,26.21
2023-06-17T08:39:10.879Z,25.96
2023-06-17T08:41:42.237Z,25.88
2023-06-17T08:44:13.166Z,26.06
2023-06-17T08:46:41.046Z,26.09
2023-06-17T08:49:13.397Z,26.26
2023-06-17T08:51:41.574Z,26.52
2023-06-17T08:54:08.336Z,26.83
2023-06-17T08:56:35.585Z,27.13
2023-06-17T08:59:02.232Z,27.36
2023-06-17T09:01:28.991Z,27.56
2023-06-17T09:03:55.832Z,27.43
2023-06-17T09:06:24.501Z,27.33
2023-06-17T09:08:52.587Z,27.37
2023-06-17T09:11:23.826Z,27.65
2023-06-17T09:13:54.482Z,27.66
2023-06-17T09:16:31.709Z,27.80
2023-06-17T09:19:02.488Z,27.89
2023-06-17T09:21:29.282Z,28.03
2023-06-17T09:23:57.617Z,28.12
2023-06-17T09:26:30.658Z,27.99
2023-06-17T09:29:06.214Z,28.33
2023-06-17T09:31:34.569Z,28.66
2023-06-17T09:34:04.763Z,28.72
2023-06-17T09:36:31.470Z,28.59
2023-06-17T09:38:58.302Z,28.85
2023-06-17T09:41:25.426Z,29.15
2023-06-17T09:43:55.878Z,28.99
2023-06-17T09:46:37.540Z,29.00
2023-06-17T09:49:08.452Z,29.25
2023-06-17T09:51:39.819Z,29.26
2023-06-17T09:54:08.207Z,29.29
2023-06-17T09:56:37.194Z,29.49
2023-06-17T09:59:04.598Z,29.78
2023-06-17T10:01:31.950Z,29.70
2023-06-17T10:03:59.655Z,30.02
2023-06-17T10:06:35.433Z,30.12
2023-06-17T10:09:07.221Z,30.37
2023-06-17T10:11:36.800Z,30.41
2023-06-17T10:14:18.779Z,30.15
2023-06-17T10:16:49.443Z,30.06
2023-06-17T10:19:20.812Z,30.37
2023-06-17T10:21:50.080Z,30.66
2023-06-17T10:24:19.156Z,30.78
2023-06-17T10:26:45.794Z,31.03
2023-06-17T10:29:13.610Z,31.16
2023-06-17T10:31:44.307Z,31.07
2023-06-17T10:34:21.346Z,30.96
2023-06-17T10:36:54.588Z,30.68
2023-06-17T10:39:21.081Z,30.69
2023-06-17T10:41:52.073Z,31.08
2023-06-17T10:44:33.886Z,31.08
2023-06-17T10:47:01.119Z,31.37
2023-06-17T10:49:39.548Z,31.72
2023-06-17T10:52:06.520Z,31.93
2023-06-17T10:54:34.527Z,32.03
2023-06-17T10:57:02.590Z,32.13
2023-06-17T10:59:31.450Z,32.17
2023-06-17T11:02:02.466Z,32.00
2023-06-17T11:04:31.861Z,31.88
2023-06-17T11:06:59.392Z,32.13
2023-06-17T11:09:27.101Z,32.43
2023-06-17T11:11:58.355Z,32.69
2023-06-17T11:14:28.225Z,32.79
2023-06-17T11:16:55.243Z,32.80
2023-06-17T11:19:21.884Z,32.90
2023-06-17T11:22:04.803Z,32.63
2023-06-17T11:24:32.727Z,32.62
2023-06-17T11:26:59.803Z,32.73
2023-06-17T11:29:27.416Z,32.74
2023-06-17T11:32:01.143Z,32.77
2023-06-17T11:34:33.223Z,32.81
2023-06-17T11:37:01.748Z,32.93
2023-06-17T11:39:30.945Z,33.05
2023-06-17T11:42:03.398Z,32.92
2023-06-17T11:44:31.759Z,32.83
2023-06-17T11:47:04.464Z,32.93
2023-06-17T11:49:31.285Z,33.39
2023-06-17T11:52:03.386Z,33.69
2023-06-17T11:54:30.518Z,33.97
2023-06-17T11:56:57.809Z,33.91
2023-06-17T11:59:24.984Z,33.84
2023-06-17T12:01:53.063Z,33.81
2023-06-17T12:04:20.029Z,33.82
2023-06-17T12:06:49.436Z,33.53
2023-06-17T12:09:17.163Z,33.59
2023-06-17T12:11:44.719Z,33.63
2023-06-17T12:14:13.478Z,33.65
2023-06-17T12:16:44.695Z,33.83
2023-06-17T12:19:21.566Z,34.14
2023-06-17T12:21:48.588Z,34.32
2023-06-17T12:24:16.933Z,34.29
2023-06-17T12:26:44.284Z,34.40
2023-06-17T12:29:20.245Z,34.25
2023-06-17T12:31:52.556Z,34.11
2023-06-17T12:34:19.295Z,34.52
2023-06-17T12:36:45.946Z,34.48
2023-06-17T12:39:12.501Z,34.45
2023-06-17T12:41:40.111Z,34.25
2023-06-17T12:44:06.882Z,34.43
2023-06-17T12:46:36.598Z,34.79
2023-06-17T12:49:03.997Z,34.95
2023-06-17T12:51:30.708Z,34.98
2023-06-17T12:53:57.279Z,34.77
2023-06-17T12:56:23.980Z,34.87
2023-06-17T12:58:50.898Z,34.97
2023-06-17T13:01:18.037Z,35.23
2023-06-17T13:03:45.170Z,35.36
2023-06-17T13:06:11.721Z,35.33
2023-06-17T13:08:38.775Z,35.33
2023-06-17T13:11:05.412Z,35.37
2023-06-17T13:13:32.724Z,35.41
2023-06-17T13:15:59.608Z,35.80
2023-06-17T13:18:26.615Z,36.10
2023-06-17T13:20:53.577Z,35.99
2023-06-17T13:23:20.553Z,36.02
2023-06-17T13:25:47.238Z,36.08
2023-06-17T13:28:14.311Z,35.95
2023-06-17T13:30:41.101Z,35.67
2023-06-17T13:33:07.955Z,35.77
2023-06-17T13:35:34.706Z,35.89
2023-06-17T13:38:04.033Z,35.92
2023-06-17T13:40:32.162Z,35.82
2023-06-17T13:42:58.782Z,35.85
2023-06-17T13:45:25.556Z,35.87
2023-06-17T13:47:52.253Z,35.94
2023-06-17T13:50:19.002Z,35.84
2023-06-17T13:52:46.054Z,35.84
2023-06-17T13:55:13.736Z,35.97
2023-06-17T13:57:40.519Z,35.59
2023-06-17T14:00:08.852Z,35.41
2023-06-17T14:02:35.667Z,35.67
2023-06-17T14:05:04.469Z,35.67
2023-06-17T14:07:31.207Z,35.68
2023-06-17T14:09:57.789Z,35.65
2023-06-17T14:12:24.493Z,35.82
2023-06-17T14:14:50.998Z,35.53
2023-06-17T14:17:17.641Z,35.66
2023-06-17T14:19:44.110Z,35.62
2023-06-17T14:22:10.723Z,35.42
2023-06-17T14:24:39.266Z,35.59
2023-06-17T14:27:23.026Z,36.00
2023-06-17T14:29:49.749Z,35.84
2023-06-17T14:32:17.716Z,35.54
2023-06-17T14:34:44.271Z,34.98
2023-06-17T14:37:10.769Z,34.91
2023-06-17T14:39:37.509Z,35.08
2023-06-17T14:42:04.366Z,35.10
2023-06-17T14:44:30.852Z,35.24
2023-06-17T14:46:57.410Z,35.17
2023-06-17T14:49:24.034Z,35.19
2023-06-17T14:51:52.647Z,35.31
2023-06-17T14:54:20.817Z,35.26
2023-06-17T14:56:47.325Z,35.42
2023-06-17T14:59:14.010Z,34.95
2023-06-17T15:01:40.683Z,35.14
2023-06-17T15:04:09.511Z,35.51
2023-06-17T15:06:36.430Z,35.43
2023-06-17T15:09:27.404Z,35.38
2023-06-17T15:11:55.590Z,35.53
2023-06-17T15:14:22.571Z,35.06
2023-06-17T15:16:51.062Z,35.04
2023-06-17T15:19:18.131Z,35.03
2023-06-17T15:21:45.736Z,35.20
2023-06-17T15:24:13.105Z,35.24
2023-06-17T15:26:39.778Z,35.11
2023-06-17T15:29:07.541Z,34.83
2023-06-17T15:31:34.848Z,34.53
2023-06-17T15:34:01.747Z,34.22
2023-06-17T15:36:29.569Z,34.19
2023-06-17T15:39:00.874Z,34.40
2023-06-17T15:41:27.520Z,34.45
2023-06-17T15:43:55.445Z,34.60
2023-06-17T15:46:22.278Z,34.44
2023-06-17T15:48:49.260Z,34.25
2023-06-17T15:51:16.333Z,34.07
2023-06-17T15:53:42.832Z,33.89
2023-06-17T15:56:09.358Z,33.87
2023-06-17T15:58:36.003Z,33.86
2023-06-17T16:01:02.544Z,33.93
2023-06-17T16:03:30.788Z,33.53
2023-06-17T16:05:58.644Z,33.34
2023-06-17T16:08:28.145Z,33.46
2023-06-17T16:10:54.666Z,33.40
2023-06-17T16:13:21.258Z,33.46
2023-06-17T16:15:47.781Z,33.26
2023-06-17T16:18:14.361Z,33.09
2023-06-17T16:20:41.489Z,32.90
2023-06-17T16:23:08.396Z,32.82
2023-06-17T16:25:49.873Z,32.92
2023-06-17T16:28:21.100Z,32.82
2023-06-17T16:30:47.647Z,32.86
2023-06-17T16:33:15.197Z,32.68
2023-06-17T16:35:41.988Z,32.79
2023-06-17T16:38:08.891Z,32.99
2023-06-17T16:40:35.569Z,33.04
2023-06-17T16:43:02.241Z,33.19
2023-06-17T16:45:29.065Z,33.14
2023-06-17T16:47:56.697Z,33.25
2023-06-17T16:50:23.891Z,33.19
2023-06-17T16:52:50.760Z,33.22
2023-06-17T16:55:17.500Z,33.13
2023-06-17T16:57:44.495Z,33.27
2023-06-17T17:00:12.497Z,33.26
2023-06-17T17:02:39.482Z,33.28
2023-06-17T17:05:06.763Z,33.17
2023-06-17T17:07:33.437Z,33.05
2023-06-17T17:09:59.922Z,32.80
2023-06-17T17:12:26.543Z,32.58
2023-06-17T17:14:53.184Z,32.39
2023-06-17T17:17:19.640Z,32.16
2023-06-17T17:19:46.324Z,31.99
2023-06-17T17:22:12.933Z,31.98
2023-06-17T17:24:39.626Z,31.89
2023-06-17T17:27:08.020Z,31.89
2023-06-17T17:29:35.346Z,31.61
2023-06-17T17:32:03.148Z,31.47
2023-06-17T17:34:29.866Z,31.37
2023-06-17T17:36:56.482Z,31.15
2023-06-17T17:39:23.264Z,30.98
2023-06-17T17:41:49.876Z,30.84
2023-06-17T17:44:16.287Z,30.58
2023-06-17T17:46:42.842Z,30.62
2023-06-17T17:49:09.761Z,30.59
2023-06-17T17:51:36.504Z,30.58
2023-06-17T17:54:03.411Z,30.58
2023-06-17T17:56:30.323Z,30.46
2023-06-17T17:58:56.981Z,30.42
2023-06-17T18:01:23.602Z,30.31
2023-06-17T18:03:50.823Z,30.19
2023-06-17T18:06:17.391Z,30.00
2023-06-17T18:08:44.130Z,29.69
2023-06-17T18:11:10.815Z,29.44
2023-06-17T18:13:37.467Z,29.11
2023-06-17T18:16:04.373Z,29.09
2023-06-17T18:18:31.064Z,28.98
2023-06-17T18:20:57.505Z,28.85
2023-06-17T18:23:24.153Z,28.71
2023-06-17T18:25:50.793Z,28.56
2023-06-17T18:28:17.431Z,28.47
2023-06-17T18:30:43.868Z,28.38
2023-06-17T18:33:10.538Z,28.26
2023-06-17T18:35:37.168Z,27.97
2023-06-17T18:38:03.654Z,27.83
2023-06-17T18:40:30.305Z,27.79
2023-06-17T18:42:56.963Z,27.75
2023-06-17T18:45:23.612Z,27.64
2023-06-17T18:47:50.161Z,27.50
2023-06-17T18:50:16.645Z,27.37
2023-06-17T18:52:45.243Z,27.30
2023-06-17T18:55:12.035Z,27.19
2023-06-17T18:57:38.808Z,27.07
2023-06-17T19:00:06.121Z,26.93
2023-06-17T19:02:33.046Z,26.85
2023-06-17T19:05:06.124Z,26.75
2023-06-17T19:07:32.801Z,26.64
2023-06-17T19:10:00.369Z,26.57
2023-06-17T19:12:31.811Z,26.45
2023-06-17T19:14:58.727Z,26.35
2023-06-17T19:17:25.840Z,26.23
2023-06-17T19:19:52.611Z,26.02
2023-06-17T19:22:19.215Z,25.92
2023-06-17T19:24:45.667Z,25.82
2023-06-17T19:27:12.205Z,25.81
2023-06-17T19:29:38.687Z,25.80
2023-06-17T19:32:05.585Z,25.66
2023-06-17T19:34:32.121Z,25.57
2023-06-17T19:36:58.708Z,25.52
2023-06-17T19:39:25.351Z,25.48
2023-06-17T19:41:51.752Z,25.35
2023-06-17T19:44:18.358Z,25.28
2023-06-17T19:46:45.330Z,25.21
2023-06-17T19:49:11.982Z,25.15
2023-06-17T19:51:38.659Z,25.05
2023-06-17T19:54:05.202Z,24.94
2023-06-17T19:56:32.162Z,24.87
2023-06-17T19:58:58.841Z,24.83
2023-06-17T20:01:27.571Z,24.72
2023-06-17T20:03:54.342Z,24.58
2023-06-17T20:06:21.003Z,24.49
2023-06-17T20:08:48.260Z,24.40
2023-06-17T20:11:14.794Z,24.34
2023-06-17T20:13:41.423Z,24.29
2023-06-17T20:16:07.971Z,24.20
2023-06-17T20:18:34.817Z,24.15
2023-06-17T20:21:01.411Z,24.06
2023-06-17T20:23:30.082Z,24.02
2023-06-17T20:25:56.984Z,23.97
2023-06-17T20:28:23.415Z,23.87
2023-06-17T20:30:49.983Z,23.83
2023-06-17T20:33:16.595Z,23.75
2023-06-17T20:35:43.431Z,23.68
2023-06-17T20:38:10.014Z,23.56
2023-06-17T20:40:36.633Z,23.43
2023-06-17T20:43:03.087Z,23.27
2023-06-17T20:45:29.695Z,23.20
2023-06-17T20:47:56.278Z,23.19
2023-06-17T20:50:23.323Z,23.16
2023-06-17T20:52:49.987Z,23.10
2023-06-17T20:55:16.667Z,23.08
2023-06-17T20:57:43.399Z,23.08
2023-06-17T21:00:10.525Z,23.04
2023-06-17T21:02:37.595Z,22.96
2023-06-17T21:05:04.786Z,22.91
2023-06-17T21:07:31.496Z,22.90
2023-06-17T21:09:58.412Z,22.88
2023-06-17T21:12:25.003Z,22.85
2023-06-17T21:14:51.604Z,22.79
2023-06-17T21:17:18.452Z,22.73
2023-06-17T21:19:45.018Z,22.71
2023-06-17T21:22:11.503Z,22.66
2023-06-17T21:24:38.006Z,22.59
2023-06-17T21:27:10.256Z,22.51
2023-06-17T21:29:39.168Z,22.41
2023-06-17T21:32:07.320Z,22.28
2023-06-17T21:34:34.230Z,22.18
2023-06-17T21:37:01.413Z,22.12
2023-06-17T21:39:27.984Z,22.08
2023-06-17T21:41:54.475Z,22.10
2023-06-17T21:44:21.235Z,22.11
2023-06-17T21:46:47.689Z,22.10
2023-06-17T21:49:14.265Z,22.06
2023-06-17T21:51:40.968Z,22.00
2023-06-17T21:54:07.514Z,21.99
2023-06-17T21:56:34.181Z,21.95
2023-06-17T21:59:00.929Z,21.88
2023-06-17T22:01:27.557Z,21.80
2023-06-17T22:03:54.244Z,21.71
2023-06-17T22:06:21.110Z,21.73
2023-06-17T22:08:47.561Z,21.74
2023-06-17T22:11:14.303Z,21.74
2023-06-17T22:13:41.123Z,21.71
2023-06-17T22:16:07.994Z,21.68
2023-06-17T22:18:34.613Z,21.72
2023-06-17T22:21:01.485Z,21.73
2023-06-17T22:23:27.982Z,21.71
2023-06-17T22:25:54.911Z,21.71
2023-06-17T22:28:21.380Z,21.73
2023-06-17T22:30:47.974Z,21.74
2023-06-17T22:33:16.073Z,21.71
2023-06-17T22:35:42.850Z,21.65
2023-06-17T22:38:09.687Z,21.67
2023-06-17T22:40:36.612Z,21.62
2023-06-17T22:43:04.064Z,21.59
2023-06-17T22:45:30.700Z,21.62
2023-06-17T22:47:57.424Z,21.63
2023-06-17T22:50:24.547Z,21.57
2023-06-17T22:52:51.277Z,21.54
2023-06-17T22:55:18.069Z,21.48
2023-06-17T22:57:44.759Z,21.47
2023-06-17T23:00:12.684Z,21.48
2023-06-17T23:02:39.355Z,21.48
2023-06-17T23:05:06.109Z,21.45
2023-06-17T23:07:32.784Z,21.41
2023-06-17T23:09:59.385Z,21.38
2023-06-17T23:12:25.954Z,21.36
2023-06-17T23:14:52.537Z,21.30
2023-06-17T23:17:19.083Z,21.25
2023-06-17T23:19:45.781Z,21.18
2023-06-17T23:22:12.672Z,21.15
2023-06-17T23:24:39.201Z,21.17
2023-06-17T23:27:06.295Z,21.15
2023-06-17T23:29:33.811Z,21.13
2023-06-17T23:32:00.489Z,21.11
2023-06-17T23:34:27.131Z,21.12
2023-06-17T23:36:54.048Z,21.10
2023-06-17T23:39:20.688Z,21.12
2023-06-17T23:41:47.151Z,21.09
2023-06-17T23:44:13.645Z,21.08
2023-06-17T23:46:40.308Z,21.04
2023-06-17T23:49:06.908Z,20.98
2023-06-17T23:51:33.621Z,20.98
2023-06-17T23:54:01.381Z,20.94
2023-06-17T23:56:28.203Z,20.94
2023-06-17T23:58:54.697Z,20.90
